UKV1502 VNKT-VILH
Flight info
| Callsign | UKV1502 |
|---|---|
| Flight time | 1h 46m |
| Altitude | 36000 |
| Route | DARKE1H NARAN L626 HW W85 DDN DCT PEGMA W39 LELAX |
| Aircraft | A21N/M-SDE2E3FGHIRWXY/LB1 |
Departure
| Time | 2026-04-16 08:27 |
|---|---|
| Airport | Tribhuvan International Airport (VNKT) |
Arrival
| Time | 2026-04-16 10:13 |
|---|---|
| Airport | Leh Kushok Bakula Rimpochee Airport (VILH) |
| Time | Latitude | Longitude | Altitude | Speed | Heading |
|---|---|---|---|---|---|
| 2026-04-16 08:16 | 27.69847 | 85.35864 | 4354 ft | 0 kts | 330° |
| 2026-04-16 08:16 | 27.69824 | 85.35869 | 4361 ft | 1 kts | 16° |
| 2026-04-16 08:16 | 27.69813 | 85.35865 | 4353 ft | 1 kts | 21° |
| 2026-04-16 08:20 | 27.69832 | 85.35873 | 4358 ft | 5 kts | 21° |
| 2026-04-16 08:20 | 27.69885 | 85.35892 | 4366 ft | 11 kts | 24° |
| 2026-04-16 08:21 | 27.69967 | 85.35932 | 4371 ft | 15 kts | 24° |
| 2026-04-16 08:21 | 27.70077 | 85.35989 | 4371 ft | 20 kts | 21° |
| 2026-04-16 08:21 | 27.70215 | 85.36051 | 4384 ft | 23 kts | 20° |
| 2026-04-16 08:21 | 27.70365 | 85.36118 | 4388 ft | 25 kts | 22° |
| 2026-04-16 08:22 | 27.70382 | 85.36126 | 4388 ft | 25 kts | 22° |
| 2026-04-16 08:22 | 27.70519 | 85.36192 | 4396 ft | 0 kts | 31° |
| 2026-04-16 08:22 | 27.70520 | 85.36193 | 4396 ft | 1 kts | 31° |
| 2026-04-16 08:23 | 27.70550 | 85.36213 | 4397 ft | 9 kts | 30° |
| 2026-04-16 08:23 | 27.70591 | 85.36287 | 4399 ft | 14 kts | 68° |
| 2026-04-16 08:23 | 27.70667 | 85.36372 | 4402 ft | 18 kts | 29° |
| 2026-04-16 08:23 | 27.70787 | 85.36425 | 4405 ft | 20 kts | 21° |
| 2026-04-16 08:24 | 27.70848 | 85.36489 | 4407 ft | 1 kts | 58° |
| 2026-04-16 08:24 | 27.70855 | 85.36503 | 4407 ft | 3 kts | 59° |
| 2026-04-16 08:24 | 27.70880 | 85.36525 | 4407 ft | 6 kts | 18° |
| 2026-04-16 08:24 | 27.70926 | 85.36513 | 4408 ft | 9 kts | 303° |
| 2026-04-16 08:25 | 27.70888 | 85.36469 | 4407 ft | 10 kts | 195° |
| 2026-04-16 08:25 | 27.70874 | 85.36468 | 4407 ft | 1 kts | 190° |
| 2026-04-16 08:25 | 27.70863 | 85.36463 | 4407 ft | 1 kts | 201° |
| 2026-04-16 08:26 | 27.70741 | 85.36409 | 4405 ft | 61 kts | 201° |
| 2026-04-16 08:27 | 27.70065 | 85.36101 | 4362 ft | 149 kts | 201° |
| 2026-04-16 08:27 | 27.68924 | 85.35588 | 4356 ft | 203 kts | 201° |
| 2026-04-16 08:27 | 27.67664 | 85.35000 | 5280 ft | 195 kts | 202° |
| 2026-04-16 08:27 | 27.66398 | 85.34387 | 6141 ft | 204 kts | 204° |
| 2026-04-16 08:28 | 27.65316 | 85.33270 | 6721 ft | 223 kts | 237° |
| 2026-04-16 08:28 | 27.64806 | 85.31564 | 7185 ft | 243 kts | 262° |
| 2026-04-16 08:28 | 27.64995 | 85.29621 | 7807 ft | 256 kts | 289° |
| 2026-04-16 08:28 | 27.65899 | 85.27865 | 8459 ft | 263 kts | 305° |
| 2026-04-16 08:29 | 27.67030 | 85.26187 | 8900 ft | 276 kts | 306° |
| 2026-04-16 08:29 | 27.68225 | 85.24413 | 9295 ft | 291 kts | 306° |
| 2026-04-16 08:29 | 27.69438 | 85.22559 | 9807 ft | 300 kts | 305° |
| 2026-04-16 08:29 | 27.70610 | 85.20575 | 10360 ft | 314 kts | 298° |
| 2026-04-16 08:30 | 27.71602 | 85.18254 | 10749 ft | 335 kts | 292° |
| 2026-04-16 08:30 | 27.72515 | 85.15789 | 11137 ft | 352 kts | 291° |
| 2026-04-16 08:30 | 27.73468 | 85.13200 | 11780 ft | 360 kts | 291° |
| 2026-04-16 08:30 | 27.74248 | 85.10502 | 12510 ft | 364 kts | 278° |
| 2026-04-16 08:31 | 27.74294 | 85.07651 | 13248 ft | 365 kts | 263° |
| 2026-04-16 08:31 | 27.74011 | 85.04801 | 13973 ft | 368 kts | 262° |
| 2026-04-16 08:31 | 27.73696 | 85.01912 | 14671 ft | 372 kts | 262° |
| 2026-04-16 08:31 | 27.73393 | 84.98991 | 15349 ft | 377 kts | 262° |
| 2026-04-16 08:32 | 27.73095 | 84.95998 | 16035 ft | 380 kts | 262° |
| 2026-04-16 08:32 | 27.72810 | 84.93058 | 16679 ft | 384 kts | 262° |
| 2026-04-16 08:32 | 27.72516 | 84.89978 | 17313 ft | 388 kts | 262° |
| 2026-04-16 08:32 | 27.72226 | 84.86958 | 17908 ft | 392 kts | 262° |
| 2026-04-16 08:33 | 27.71931 | 84.83889 | 18521 ft | 395 kts | 262° |
| 2026-04-16 08:33 | 27.71634 | 84.80789 | 19108 ft | 399 kts | 262° |
| 2026-04-16 08:33 | 27.71334 | 84.77675 | 19662 ft | 402 kts | 262° |
| 2026-04-16 08:33 | 27.71034 | 84.74568 | 20210 ft | 406 kts | 262° |
| 2026-04-16 08:34 | 27.70831 | 84.72472 | 20577 ft | 408 kts | 262° |
| 2026-04-16 08:34 | 27.70486 | 84.68923 | 21158 ft | 411 kts | 262° |
| 2026-04-16 08:34 | 27.70173 | 84.65709 | 21694 ft | 415 kts | 262° |
| 2026-04-16 08:34 | 27.69843 | 84.62333 | 22239 ft | 418 kts | 263° |
| 2026-04-16 08:35 | 27.69523 | 84.59057 | 22737 ft | 421 kts | 262° |
| 2026-04-16 08:35 | 27.69217 | 84.55942 | 23204 ft | 424 kts | 262° |
| 2026-04-16 08:35 | 27.68874 | 84.52450 | 23699 ft | 427 kts | 262° |
| 2026-04-16 08:35 | 27.68543 | 84.49102 | 24144 ft | 430 kts | 262° |
| 2026-04-16 08:36 | 27.68231 | 84.45728 | 24567 ft | 434 kts | 265° |
| 2026-04-16 08:36 | 27.68323 | 84.42323 | 24971 ft | 438 kts | 277° |
| 2026-04-16 08:36 | 27.69069 | 84.38973 | 25373 ft | 442 kts | 287° |
| 2026-04-16 08:36 | 27.70079 | 84.35694 | 25770 ft | 445 kts | 289° |
| 2026-04-16 08:37 | 27.71120 | 84.32391 | 26146 ft | 447 kts | 288° |
| 2026-04-16 08:37 | 27.72142 | 84.29114 | 26512 ft | 450 kts | 288° |
| 2026-04-16 08:37 | 27.73171 | 84.25773 | 26866 ft | 452 kts | 288° |
| 2026-04-16 08:37 | 27.74198 | 84.22416 | 27204 ft | 455 kts | 288° |
| 2026-04-16 08:38 | 27.75230 | 84.19026 | 27546 ft | 457 kts | 288° |
| 2026-04-16 08:38 | 27.76263 | 84.15615 | 27873 ft | 460 kts | 288° |
| 2026-04-16 08:38 | 27.77295 | 84.12199 | 28190 ft | 462 kts | 288° |
| 2026-04-16 08:38 | 27.78335 | 84.08751 | 28489 ft | 464 kts | 288° |
| 2026-04-16 08:39 | 27.79385 | 84.05249 | 28802 ft | 466 kts | 288° |
| 2026-04-16 08:39 | 27.80427 | 84.01767 | 29104 ft | 468 kts | 288° |
| 2026-04-16 08:39 | 27.81476 | 83.98283 | 29398 ft | 471 kts | 288° |
| 2026-04-16 08:39 | 27.82529 | 83.94775 | 29673 ft | 473 kts | 288° |
| 2026-04-16 08:40 | 27.83595 | 83.91252 | 29957 ft | 475 kts | 288° |
| 2026-04-16 08:40 | 27.84665 | 83.87710 | 30220 ft | 477 kts | 288° |
| 2026-04-16 08:40 | 27.85726 | 83.84163 | 30470 ft | 478 kts | 288° |
| 2026-04-16 08:40 | 27.86794 | 83.80597 | 30761 ft | 478 kts | 288° |
| 2026-04-16 08:41 | 27.87857 | 83.77047 | 31068 ft | 478 kts | 288° |
| 2026-04-16 08:41 | 27.88922 | 83.73491 | 31381 ft | 477 kts | 288° |
| 2026-04-16 08:41 | 27.89985 | 83.69935 | 31690 ft | 477 kts | 288° |
| 2026-04-16 08:41 | 27.91041 | 83.66392 | 31991 ft | 476 kts | 288° |
| 2026-04-16 08:42 | 27.92098 | 83.62843 | 32317 ft | 475 kts | 288° |
| 2026-04-16 08:42 | 27.93154 | 83.59296 | 32633 ft | 475 kts | 288° |
| 2026-04-16 08:42 | 27.94202 | 83.55770 | 32918 ft | 474 kts | 288° |
| 2026-04-16 08:42 | 27.95319 | 83.52257 | 33194 ft | 474 kts | 290° |
| 2026-04-16 08:43 | 27.96510 | 83.48794 | 33476 ft | 473 kts | 290° |
| 2026-04-16 08:43 | 27.97691 | 83.45372 | 33728 ft | 473 kts | 290° |
| 2026-04-16 08:43 | 27.98889 | 83.41901 | 33984 ft | 473 kts | 290° |
| 2026-04-16 08:43 | 28.00078 | 83.38445 | 34231 ft | 472 kts | 290° |
| 2026-04-16 08:44 | 28.01268 | 83.34979 | 34437 ft | 472 kts | 290° |
| 2026-04-16 08:44 | 28.02451 | 83.31526 | 34673 ft | 471 kts | 290° |
| 2026-04-16 08:44 | 28.03636 | 83.28064 | 34900 ft | 471 kts | 290° |
| 2026-04-16 08:44 | 28.04819 | 83.24613 | 35111 ft | 471 kts | 290° |
| 2026-04-16 08:45 | 28.06004 | 83.21159 | 35324 ft | 470 kts | 290° |
| 2026-04-16 08:45 | 28.07185 | 83.17716 | 35536 ft | 470 kts | 290° |
| 2026-04-16 08:45 | 28.08365 | 83.14262 | 35735 ft | 469 kts | 290° |
| 2026-04-16 08:45 | 28.09540 | 83.10824 | 35921 ft | 469 kts | 290° |
| 2026-04-16 08:46 | 28.10715 | 83.07374 | 36069 ft | 469 kts | 290° |
| 2026-04-16 08:46 | 28.11891 | 83.03919 | 36084 ft | 469 kts | 290° |
| 2026-04-16 08:46 | 28.14232 | 82.97035 | 36065 ft | 468 kts | 290° |
| 2026-04-16 08:47 | 28.16550 | 82.90205 | 36059 ft | 468 kts | 290° |
| 2026-04-16 08:47 | 28.18885 | 82.83320 | 36042 ft | 468 kts | 290° |
| 2026-04-16 08:48 | 28.21188 | 82.76513 | 36044 ft | 469 kts | 290° |
| 2026-04-16 08:48 | 28.23548 | 82.69522 | 36055 ft | 469 kts | 290° |
| 2026-04-16 08:49 | 28.25873 | 82.62617 | 36053 ft | 468 kts | 290° |
| 2026-04-16 08:49 | 28.28190 | 82.55728 | 36045 ft | 468 kts | 290° |
| 2026-04-16 08:50 | 28.30507 | 82.48820 | 36042 ft | 469 kts | 290° |
| 2026-04-16 08:50 | 28.32819 | 82.41917 | 36047 ft | 468 kts | 290° |
| 2026-04-16 08:51 | 28.35137 | 82.34988 | 36053 ft | 468 kts | 290° |
| 2026-04-16 08:51 | 28.37444 | 82.28083 | 36049 ft | 468 kts | 290° |
| 2026-04-16 08:52 | 28.39742 | 82.21170 | 36051 ft | 468 kts | 290° |
| 2026-04-16 08:52 | 28.42025 | 82.14304 | 36049 ft | 468 kts | 290° |
| 2026-04-16 08:53 | 28.43410 | 82.10132 | 36053 ft | 469 kts | 290° |
| 2026-04-16 08:53 | 28.44838 | 82.05823 | 36051 ft | 468 kts | 290° |
| 2026-04-16 08:54 | 28.46211 | 82.01677 | 36046 ft | 468 kts | 290° |
| 2026-04-16 08:54 | 28.47388 | 81.98115 | 36052 ft | 468 kts | 290° |
| 2026-04-16 08:55 | 28.48260 | 81.95477 | 36058 ft | 468 kts | 290° |
| 2026-04-16 08:55 | 28.49244 | 81.92498 | 36054 ft | 468 kts | 290° |
| 2026-04-16 08:56 | 28.51327 | 81.86175 | 36046 ft | 468 kts | 289° |
| 2026-04-16 08:56 | 28.52103 | 81.83819 | 36054 ft | 468 kts | 289° |
| 2026-04-16 08:57 | 28.54386 | 81.76880 | 36056 ft | 468 kts | 289° |
| 2026-04-16 08:57 | 28.56645 | 81.69987 | 36055 ft | 470 kts | 289° |
| 2026-04-16 08:58 | 28.58881 | 81.63038 | 36044 ft | 468 kts | 287° |
| 2026-04-16 08:58 | 28.59064 | 81.62370 | 36047 ft | 468 kts | 286° |
| 2026-04-16 09:00 | 28.59518 | 81.60650 | 36047 ft | 467 kts | 285° |
| 2026-04-16 09:01 | 28.62034 | 81.50868 | 36045 ft | 468 kts | 285° |
| 2026-04-16 09:02 | 28.63866 | 81.43763 | 36057 ft | 469 kts | 285° |
| 2026-04-16 09:02 | 28.65692 | 81.36652 | 36044 ft | 467 kts | 285° |
| 2026-04-16 09:03 | 28.67512 | 81.29546 | 36061 ft | 468 kts | 285° |
| 2026-04-16 09:03 | 28.69322 | 81.22481 | 36052 ft | 468 kts | 285° |
| 2026-04-16 09:04 | 28.71139 | 81.15369 | 36054 ft | 467 kts | 285° |
| 2026-04-16 09:04 | 28.72949 | 81.08251 | 36042 ft | 467 kts | 285° |
| 2026-04-16 09:05 | 28.74752 | 81.01145 | 36035 ft | 468 kts | 285° |
| 2026-04-16 09:05 | 28.76556 | 80.94020 | 36052 ft | 468 kts | 285° |
| 2026-04-16 09:06 | 28.78348 | 80.86937 | 36046 ft | 467 kts | 285° |
| 2026-04-16 09:06 | 28.80143 | 80.79819 | 36049 ft | 467 kts | 285° |
| 2026-04-16 09:07 | 28.81931 | 80.72697 | 36045 ft | 467 kts | 285° |
| 2026-04-16 09:07 | 28.83720 | 80.65571 | 36055 ft | 467 kts | 285° |
| 2026-04-16 09:08 | 28.85504 | 80.58448 | 36050 ft | 467 kts | 285° |
| 2026-04-16 09:08 | 28.87287 | 80.51303 | 36046 ft | 468 kts | 285° |
| 2026-04-16 09:09 | 28.89052 | 80.44206 | 36054 ft | 467 kts | 285° |
| 2026-04-16 09:09 | 28.90825 | 80.37073 | 36051 ft | 467 kts | 285° |
| 2026-04-16 09:10 | 28.92591 | 80.29942 | 36045 ft | 467 kts | 285° |
| 2026-04-16 09:10 | 28.94360 | 80.22785 | 36046 ft | 468 kts | 285° |
| 2026-04-16 09:11 | 28.96103 | 80.15640 | 36046 ft | 467 kts | 282° |
| 2026-04-16 09:11 | 28.97001 | 80.08292 | 36049 ft | 466 kts | 275° |
| 2026-04-16 09:12 | 28.97735 | 80.00937 | 36050 ft | 466 kts | 276° |
| 2026-04-16 09:12 | 28.98479 | 79.93634 | 36052 ft | 466 kts | 276° |
| 2026-04-16 09:13 | 28.99225 | 79.86275 | 36049 ft | 467 kts | 275° |
| 2026-04-16 09:13 | 28.99965 | 79.78921 | 36047 ft | 466 kts | 275° |
| 2026-04-16 09:14 | 29.00703 | 79.71568 | 36043 ft | 466 kts | 275° |
| 2026-04-16 09:14 | 29.01437 | 79.64200 | 36044 ft | 466 kts | 275° |
| 2026-04-16 09:15 | 29.02169 | 79.56792 | 36049 ft | 467 kts | 275° |
| 2026-04-16 09:15 | 29.03270 | 79.49495 | 36044 ft | 469 kts | 288° |
| 2026-04-16 09:15 | 29.04674 | 79.46130 | 36048 ft | 471 kts | 302° |
| 2026-04-16 09:16 | 29.06717 | 79.43212 | 36049 ft | 472 kts | 314° |
| 2026-04-16 09:16 | 29.11449 | 79.38032 | 36056 ft | 471 kts | 316° |
| 2026-04-16 09:17 | 29.16128 | 79.32883 | 36048 ft | 471 kts | 315° |
| 2026-04-16 09:17 | 29.20811 | 79.27655 | 36048 ft | 470 kts | 315° |
| 2026-04-16 09:18 | 29.25500 | 79.22417 | 36057 ft | 470 kts | 315° |
| 2026-04-16 09:18 | 29.30186 | 79.17192 | 36048 ft | 470 kts | 315° |
| 2026-04-16 09:19 | 29.34871 | 79.11949 | 36052 ft | 470 kts | 315° |
| 2026-04-16 09:19 | 29.39519 | 79.06746 | 36049 ft | 470 kts | 315° |
| 2026-04-16 09:20 | 29.44198 | 79.01494 | 36051 ft | 471 kts | 315° |
| 2026-04-16 09:20 | 29.48903 | 78.96207 | 36058 ft | 470 kts | 315° |
| 2026-04-16 09:21 | 29.53546 | 78.90979 | 36055 ft | 470 kts | 315° |
| 2026-04-16 09:21 | 29.58216 | 78.85712 | 36048 ft | 470 kts | 315° |
| 2026-04-16 09:22 | 29.62880 | 78.80447 | 36053 ft | 471 kts | 315° |
| 2026-04-16 09:22 | 29.67554 | 78.75168 | 36045 ft | 470 kts | 315° |
| 2026-04-16 09:23 | 29.72220 | 78.69895 | 36045 ft | 471 kts | 315° |
| 2026-04-16 09:23 | 29.76881 | 78.64616 | 36051 ft | 470 kts | 315° |
| 2026-04-16 09:24 | 29.81539 | 78.59331 | 36051 ft | 471 kts | 315° |
| 2026-04-16 09:24 | 29.86170 | 78.54062 | 36061 ft | 470 kts | 315° |
| 2026-04-16 09:25 | 29.90979 | 78.48587 | 36052 ft | 470 kts | 315° |
| 2026-04-16 09:25 | 29.95599 | 78.43325 | 36044 ft | 470 kts | 315° |
| 2026-04-16 09:26 | 30.00247 | 78.38021 | 36044 ft | 470 kts | 315° |
| 2026-04-16 09:26 | 30.04903 | 78.32699 | 36053 ft | 471 kts | 315° |
| 2026-04-16 09:27 | 30.09543 | 78.27388 | 36055 ft | 470 kts | 315° |
| 2026-04-16 09:27 | 30.14195 | 78.22062 | 36046 ft | 470 kts | 315° |
| 2026-04-16 09:28 | 30.18929 | 78.16856 | 36035 ft | 471 kts | 322° |
| 2026-04-16 09:28 | 30.24549 | 78.12959 | 36053 ft | 471 kts | 331° |
| 2026-04-16 09:29 | 30.30299 | 78.09307 | 36053 ft | 471 kts | 331° |
| 2026-04-16 09:29 | 30.36032 | 78.05625 | 36046 ft | 471 kts | 330° |
| 2026-04-16 09:30 | 30.41750 | 78.01927 | 36050 ft | 471 kts | 330° |
| 2026-04-16 09:30 | 30.47477 | 77.98215 | 36050 ft | 471 kts | 330° |
| 2026-04-16 09:31 | 30.53153 | 77.94530 | 36045 ft | 471 kts | 330° |
| 2026-04-16 09:31 | 30.58868 | 77.90823 | 36053 ft | 471 kts | 330° |
| 2026-04-16 09:32 | 30.64583 | 77.87108 | 36047 ft | 471 kts | 330° |
| 2026-04-16 09:32 | 30.70298 | 77.83384 | 36054 ft | 471 kts | 330° |
| 2026-04-16 09:33 | 30.76128 | 77.79585 | 36053 ft | 471 kts | 330° |
| 2026-04-16 09:33 | 30.81847 | 77.75846 | 36053 ft | 471 kts | 330° |
| 2026-04-16 09:34 | 30.87557 | 77.72117 | 36048 ft | 471 kts | 330° |
| 2026-04-16 09:34 | 30.93353 | 77.68323 | 36057 ft | 472 kts | 330° |
| 2026-04-16 09:35 | 30.98254 | 77.65107 | 36049 ft | 471 kts | 330° |
| 2026-04-16 09:35 | 31.03965 | 77.61362 | 36056 ft | 471 kts | 330° |
| 2026-04-16 09:36 | 31.09679 | 77.57606 | 36043 ft | 471 kts | 330° |
| 2026-04-16 09:36 | 31.15480 | 77.54162 | 36042 ft | 471 kts | 342° |
| 2026-04-16 09:36 | 31.18681 | 77.53347 | 36041 ft | 472 kts | 355° |
| 2026-04-16 09:37 | 31.21956 | 77.53352 | 36059 ft | 471 kts | 4° |
| 2026-04-16 09:37 | 31.28475 | 77.53954 | 36063 ft | 470 kts | 5° |
| 2026-04-16 09:38 | 31.34928 | 77.54519 | 36049 ft | 470 kts | 4° |
| 2026-04-16 09:38 | 31.41463 | 77.55054 | 36045 ft | 470 kts | 4° |
| 2026-04-16 09:39 | 31.47980 | 77.55585 | 36048 ft | 470 kts | 4° |
| 2026-04-16 09:39 | 31.54498 | 77.56124 | 36053 ft | 470 kts | 4° |
| 2026-04-16 09:40 | 31.61014 | 77.56663 | 36048 ft | 470 kts | 5° |
| 2026-04-16 09:40 | 31.67530 | 77.57199 | 36052 ft | 470 kts | 4° |
| 2026-04-16 09:41 | 31.74013 | 77.57739 | 36050 ft | 469 kts | 4° |
| 2026-04-16 09:41 | 31.80534 | 77.58276 | 36051 ft | 470 kts | 4° |
| 2026-04-16 09:42 | 31.87046 | 77.58807 | 36051 ft | 470 kts | 4° |
| 2026-04-16 09:42 | 31.93563 | 77.59350 | 36050 ft | 469 kts | 4° |
| 2026-04-16 09:43 | 32.00046 | 77.59887 | 36050 ft | 470 kts | 4° |
| 2026-04-16 09:43 | 32.06562 | 77.60423 | 36051 ft | 470 kts | 4° |
| 2026-04-16 09:44 | 32.13079 | 77.60966 | 36051 ft | 469 kts | 4° |
| 2026-04-16 09:44 | 32.19598 | 77.61511 | 36050 ft | 470 kts | 4° |
| 2026-04-16 09:45 | 32.26117 | 77.62061 | 36045 ft | 470 kts | 4° |
| 2026-04-16 09:45 | 32.32610 | 77.62606 | 36051 ft | 466 kts | 4° |
| 2026-04-16 09:46 | 32.39042 | 77.63070 | 36037 ft | 464 kts | 360° |
| 2026-04-16 09:46 | 32.45670 | 77.62458 | 36053 ft | 471 kts | 355° |
| 2026-04-16 09:47 | 32.52187 | 77.61721 | 36054 ft | 471 kts | 355° |
| 2026-04-16 09:47 | 32.58708 | 77.60987 | 36037 ft | 469 kts | 355° |
| 2026-04-16 09:47 | 32.61935 | 77.60629 | 35486 ft | 465 kts | 355° |
| 2026-04-16 09:48 | 32.65164 | 77.60265 | 34551 ft | 470 kts | 355° |
| 2026-04-16 09:48 | 32.68440 | 77.59895 | 33690 ft | 472 kts | 355° |
| 2026-04-16 09:48 | 32.71700 | 77.59525 | 33092 ft | 468 kts | 355° |
| 2026-04-16 09:48 | 32.74927 | 77.59158 | 32547 ft | 463 kts | 355° |
| 2026-04-16 09:49 | 32.78115 | 77.58794 | 31990 ft | 459 kts | 355° |
| 2026-04-16 09:49 | 32.81272 | 77.58437 | 31438 ft | 454 kts | 355° |
| 2026-04-16 09:49 | 32.84401 | 77.58083 | 30866 ft | 450 kts | 355° |
| 2026-04-16 09:49 | 32.87510 | 77.57729 | 30304 ft | 447 kts | 355° |
| 2026-04-16 09:50 | 32.90591 | 77.57380 | 29748 ft | 442 kts | 355° |
| 2026-04-16 09:50 | 32.93637 | 77.57034 | 29182 ft | 438 kts | 355° |
| 2026-04-16 09:50 | 32.96668 | 77.56688 | 28627 ft | 434 kts | 355° |
| 2026-04-16 09:50 | 32.99655 | 77.56341 | 28072 ft | 431 kts | 355° |
| 2026-04-16 09:51 | 33.02747 | 77.55989 | 27501 ft | 426 kts | 355° |
| 2026-04-16 09:51 | 33.05727 | 77.55648 | 26932 ft | 423 kts | 355° |
| 2026-04-16 09:51 | 33.08639 | 77.55316 | 26385 ft | 419 kts | 355° |
| 2026-04-16 09:51 | 33.11533 | 77.54986 | 25840 ft | 416 kts | 355° |
| 2026-04-16 09:52 | 33.14396 | 77.54658 | 25319 ft | 412 kts | 355° |
| 2026-04-16 09:52 | 33.17264 | 77.54329 | 24964 ft | 409 kts | 355° |
| 2026-04-16 09:52 | 33.20103 | 77.54002 | 24667 ft | 408 kts | 355° |
| 2026-04-16 09:52 | 33.22923 | 77.53678 | 24401 ft | 406 kts | 355° |
| 2026-04-16 09:53 | 33.25724 | 77.53361 | 24142 ft | 404 kts | 355° |
| 2026-04-16 09:53 | 33.28521 | 77.53039 | 23889 ft | 403 kts | 355° |
| 2026-04-16 09:53 | 33.31301 | 77.52717 | 23564 ft | 401 kts | 355° |
| 2026-04-16 09:53 | 33.34036 | 77.52401 | 23043 ft | 399 kts | 355° |
| 2026-04-16 09:54 | 33.36815 | 77.52081 | 22215 ft | 405 kts | 355° |
| 2026-04-16 09:54 | 33.39629 | 77.51759 | 21533 ft | 405 kts | 355° |
| 2026-04-16 09:54 | 33.42437 | 77.51435 | 20934 ft | 404 kts | 355° |
| 2026-04-16 09:54 | 33.45219 | 77.51116 | 20347 ft | 401 kts | 355° |
| 2026-04-16 09:55 | 33.47993 | 77.50798 | 19794 ft | 399 kts | 355° |
| 2026-04-16 09:55 | 33.50743 | 77.50482 | 19294 ft | 394 kts | 355° |
| 2026-04-16 09:55 | 33.53430 | 77.50174 | 19046 ft | 383 kts | 355° |
| 2026-04-16 09:55 | 33.56048 | 77.49869 | 18898 ft | 373 kts | 355° |
| 2026-04-16 09:56 | 33.58630 | 77.49571 | 18776 ft | 372 kts | 355° |
| 2026-04-16 09:56 | 33.61203 | 77.49275 | 18648 ft | 372 kts | 355° |
| 2026-04-16 09:56 | 33.63771 | 77.48898 | 18542 ft | 371 kts | 351° |
| 2026-04-16 09:56 | 33.66266 | 77.48279 | 18452 ft | 371 kts | 346° |
| 2026-04-16 09:57 | 33.68722 | 77.47362 | 18358 ft | 371 kts | 339° |
| 2026-04-16 09:57 | 33.71082 | 77.46105 | 18245 ft | 370 kts | 334° |
| 2026-04-16 09:57 | 33.73366 | 77.44697 | 18118 ft | 369 kts | 327° |
| 2026-04-16 09:57 | 33.75388 | 77.42686 | 18002 ft | 368 kts | 313° |
| 2026-04-16 09:58 | 33.77068 | 77.40453 | 17923 ft | 359 kts | 310° |
| 2026-04-16 09:58 | 33.78660 | 77.38211 | 17806 ft | 347 kts | 309° |
| 2026-04-16 09:58 | 33.80191 | 77.36028 | 17669 ft | 336 kts | 309° |
| 2026-04-16 09:58 | 33.81790 | 77.34062 | 18105 ft | 325 kts | 320° |
| 2026-04-16 09:59 | 33.83568 | 77.32395 | 19035 ft | 321 kts | 321° |
| 2026-04-16 09:59 | 33.85349 | 77.30827 | 19941 ft | 307 kts | 326° |
| 2026-04-16 09:59 | 33.87176 | 77.29495 | 20544 ft | 321 kts | 330° |
| 2026-04-16 09:59 | 33.89241 | 77.28217 | 19725 ft | 341 kts | 335° |
| 2026-04-16 10:00 | 33.91473 | 77.27109 | 18925 ft | 352 kts | 340° |
| 2026-04-16 10:00 | 33.93832 | 77.26198 | 18129 ft | 361 kts | 345° |
| 2026-04-16 10:00 | 33.96269 | 77.25505 | 17382 ft | 368 kts | 349° |
| 2026-04-16 10:01 | 34.01312 | 77.24862 | 16281 ft | 351 kts | 0° |
| 2026-04-16 10:01 | 34.03661 | 77.24910 | 16563 ft | 330 kts | 2° |
| 2026-04-16 10:01 | 34.05880 | 77.24994 | 16548 ft | 308 kts | 4° |
| 2026-04-16 10:01 | 34.07949 | 77.25355 | 16215 ft | 296 kts | 16° |
| 2026-04-16 10:02 | 34.09888 | 77.26126 | 15488 ft | 291 kts | 26° |
| 2026-04-16 10:02 | 34.11570 | 77.27308 | 15001 ft | 273 kts | 38° |
| 2026-04-16 10:02 | 34.12970 | 77.28765 | 14463 ft | 258 kts | 46° |
| 2026-04-16 10:02 | 34.14240 | 77.30397 | 14133 ft | 282 kts | 56° |
| 2026-04-16 10:03 | 34.15194 | 77.32577 | 13811 ft | 300 kts | 74° |
| 2026-04-16 10:03 | 34.15545 | 77.35080 | 13671 ft | 308 kts | 96° |
| 2026-04-16 10:03 | 34.15186 | 77.37699 | 13494 ft | 321 kts | 101° |
| 2026-04-16 10:03 | 34.14770 | 77.40326 | 13516 ft | 325 kts | 103° |
| 2026-04-16 10:04 | 34.14240 | 77.42985 | 13538 ft | 327 kts | 107° |
| 2026-04-16 10:04 | 34.13465 | 77.45556 | 13549 ft | 325 kts | 116° |
| 2026-04-16 10:04 | 34.12524 | 77.47846 | 14380 ft | 285 kts | 117° |
| 2026-04-16 10:04 | 34.11791 | 77.50039 | 14544 ft | 284 kts | 108° |
| 2026-04-16 10:05 | 34.11423 | 77.52398 | 14502 ft | 291 kts | 93° |
| 2026-04-16 10:05 | 34.11749 | 77.54835 | 14150 ft | 298 kts | 77° |
| 2026-04-16 10:05 | 34.12165 | 77.57232 | 14377 ft | 285 kts | 85° |
| 2026-04-16 10:05 | 34.12092 | 77.59530 | 14794 ft | 261 kts | 102° |
| 2026-04-16 10:06 | 34.11256 | 77.61308 | 15090 ft | 232 kts | 136° |
| 2026-04-16 10:06 | 34.10381 | 77.61938 | 15308 ft | 216 kts | 160° |
| 2026-04-16 10:06 | 34.08966 | 77.61950 | 15493 ft | 205 kts | 188° |
| 2026-04-16 10:06 | 34.07428 | 77.61601 | 14672 ft | 242 kts | 192° |
| 2026-04-16 10:07 | 34.05598 | 77.60219 | 14588 ft | 238 kts | 234° |
| 2026-04-16 10:07 | 34.05278 | 77.58329 | 14661 ft | 231 kts | 276° |
| 2026-04-16 10:07 | 34.05971 | 77.56641 | 14839 ft | 222 kts | 304° |
| 2026-04-16 10:07 | 34.06587 | 77.55633 | 14852 ft | 224 kts | 303° |
| 2026-04-16 10:08 | 34.07506 | 77.54042 | 14517 ft | 241 kts | 302° |
| 2026-04-16 10:08 | 34.08519 | 77.52297 | 13774 ft | 267 kts | 306° |
| 2026-04-16 10:08 | 34.09848 | 77.50623 | 12743 ft | 288 kts | 317° |
| 2026-04-16 10:08 | 34.11466 | 77.49144 | 11986 ft | 292 kts | 327° |
| 2026-04-16 10:09 | 34.13417 | 77.48629 | 11385 ft | 284 kts | 7° |
| 2026-04-16 10:09 | 34.15136 | 77.48766 | 12216 ft | 220 kts | 342° |
| 2026-04-16 10:09 | 34.16261 | 77.47764 | 12620 ft | 194 kts | 292° |
| 2026-04-16 10:09 | 34.16484 | 77.46213 | 12631 ft | 188 kts | 266° |
| 2026-04-16 10:10 | 34.16549 | 77.44604 | 12403 ft | 203 kts | 279° |
| 2026-04-16 10:10 | 34.16907 | 77.43002 | 12665 ft | 184 kts | 272° |
| 2026-04-16 10:10 | 34.16458 | 77.41697 | 12650 ft | 176 kts | 203° |
| 2026-04-16 10:10 | 34.15335 | 77.41764 | 12683 ft | 171 kts | 137° |
| 2026-04-16 10:11 | 34.14733 | 77.43039 | 12559 ft | 185 kts | 110° |
| 2026-04-16 10:11 | 34.14233 | 77.44641 | 11937 ft | 226 kts | 111° |
| 2026-04-16 10:11 | 34.13437 | 77.46367 | 11596 ft | 240 kts | 126° |
| 2026-04-16 10:11 | 34.12284 | 77.47847 | 11468 ft | 243 kts | 138° |
| 2026-04-16 10:12 | 34.11285 | 77.49330 | 11944 ft | 209 kts | 95° |
| 2026-04-16 10:12 | 34.11678 | 77.50888 | 12214 ft | 215 kts | 49° |
| 2026-04-16 10:12 | 34.12959 | 77.52192 | 11131 ft | 264 kts | 49° |
| 2026-04-16 10:12 | 34.13567 | 77.54006 | 10957 ft | 206 kts | 83° |
| 2026-04-16 10:13 | 34.13811 | 77.55392 | 10848 ft | 106 kts | 62° |
| 2026-04-16 10:13 | 34.13909 | 77.55594 | 10837 ft | 58 kts | 45° |
| 2026-04-16 10:13 | 34.13996 | 77.55726 | 10839 ft | 0 kts | 89° |
| 2026-04-16 10:13 | 34.13996 | 77.55732 | 10839 ft | 3 kts | 89° |
| 2026-04-16 10:14 | 34.13998 | 77.55745 | 10837 ft | 3 kts | 75° |
| 2026-04-16 10:14 | 34.14041 | 77.55718 | 10838 ft | 8 kts | 294° |
| 2026-04-16 10:14 | 34.14052 | 77.55658 | 10838 ft | 6 kts | 278° |
| 2026-04-16 10:14 | 34.14051 | 77.55616 | 10840 ft | 4 kts | 264° |
| 2026-04-16 10:15 | 34.14052 | 77.55591 | 10840 ft | 2 kts | 275° |
| 2026-04-16 10:15 | 34.14051 | 77.55583 | 10840 ft | 0 kts | 271° |
| 2026-04-16 10:15 | 34.14051 | 77.55592 | 10840 ft | 2 kts | 273° |
| 2026-04-16 10:16 | 34.14051 | 77.55591 | 10840 ft | 0 kts | 270° |
| 2026-04-16 10:16 | 34.14051 | 77.55590 | 10840 ft | 0 kts | 269° |
| 2026-04-16 10:16 | 34.14050 | 77.55589 | 10840 ft | 0 kts | 269° |
| 2026-04-16 10:16 | 34.14050 | 77.55581 | 10840 ft | 4 kts | 271° |
| 2026-04-16 10:17 | 34.14050 | 77.55492 | 10840 ft | 13 kts | 271° |
| 2026-04-16 10:17 | 34.14095 | 77.55386 | 10842 ft | 17 kts | 318° |
| 2026-04-16 10:17 | 34.14124 | 77.55308 | 10845 ft | 5 kts | 304° |
| 2026-04-16 10:17 | 34.14138 | 77.55291 | 10843 ft | 0 kts | 334° |
| 2026-04-16 10:20 | 34.14112 | 77.55256 | 10850 ft | 0 kts | 330° |